createdAt,value
2018-07-28T00:04:17.834Z,101009.03
2018-07-28T00:09:20.213Z,101005.12
2018-07-28T00:14:22.364Z,101009.82
2018-07-28T00:19:24.525Z,101009.28
2018-07-28T00:24:26.673Z,100996.94
2018-07-28T00:29:28.798Z,100982.55
2018-07-28T00:34:30.943Z,100976.56
2018-07-28T00:39:33.092Z,100969.33
2018-07-28T00:44:35.244Z,100949.05
2018-07-28T00:49:37.436Z,100945.22
2018-07-28T00:54:39.617Z,100934.92
2018-07-28T00:59:41.771Z,100933.67
2018-07-28T01:04:43.929Z,100926.97
2018-07-28T01:09:46.072Z,100913.84
2018-07-28T01:14:48.188Z,100904.52
2018-07-28T01:19:50.400Z,100896.88
2018-07-28T01:24:52.882Z,100890.72
2018-07-28T01:29:54.996Z,100890.64
2018-07-28T01:34:57.123Z,100895.45
2018-07-28T01:39:59.284Z,100880.82
2018-07-28T01:45:01.427Z,100867.19
2018-07-28T01:50:04.754Z,100858.15
2018-07-28T01:55:06.925Z,100851.06
2018-07-28T02:00:09.438Z,100847.16
2018-07-28T02:05:11.588Z,100839.56
2018-07-28T02:10:13.733Z,100834.05
2018-07-28T02:15:15.895Z,100825.41
2018-07-28T02:20:18.061Z,100821.10
2018-07-28T02:25:20.188Z,100816.70
2018-07-28T02:30:22.313Z,100814.36
2018-07-28T02:35:24.485Z,100807.02
2018-07-28T02:40:26.662Z,100797.62
2018-07-28T02:45:28.811Z,100778.83
2018-07-28T02:50:30.955Z,100782.52
2018-07-28T02:55:33.112Z,100789.05
2018-07-28T03:00:35.246Z,100782.09
2018-07-28T03:05:37.394Z,100777.33
2018-07-28T03:10:39.522Z,100771.94
2018-07-28T03:15:41.659Z,100764.31
2018-07-28T03:20:43.770Z,100760.64
2018-07-28T03:25:45.920Z,100760.20
2018-07-28T03:30:48.077Z,100749.54
2018-07-28T03:35:50.225Z,100742.27
2018-07-28T03:40:52.343Z,100731.83
2018-07-28T03:45:54.476Z,100727.56
2018-07-28T03:50:56.594Z,100732.73
2018-07-28T03:55:58.769Z,100729.25
2018-07-28T04:01:00.906Z,100714.20
2018-07-28T04:06:03.054Z,100714.23
2018-07-28T04:11:05.201Z,100714.19
2018-07-28T04:16:07.330Z,100704.92
2018-07-28T04:21:09.417Z,100690.50
2018-07-28T04:26:11.550Z,100683.27
2018-07-28T04:31:13.672Z,100680.13
2018-07-28T04:36:15.793Z,100676.86
2018-07-28T04:41:17.914Z,100671.73
2018-07-28T04:46:20.059Z,100677.85
2018-07-28T04:51:22.181Z,100677.77
2018-07-28T04:56:24.537Z,100684.05
2018-07-28T05:01:26.682Z,100678.63
2018-07-28T05:06:28.781Z,100667.58
2018-07-28T05:11:30.881Z,100664.33
2018-07-28T05:16:32.998Z,100655.25
2018-07-28T05:21:35.179Z,100639.23
2018-07-28T05:26:37.311Z,100645.06
2018-07-28T05:31:39.479Z,100635.72
2018-07-28T05:36:41.582Z,100640.02
2018-07-28T05:41:43.716Z,100632.84
2018-07-28T05:46:45.844Z,100621.84
2018-07-28T05:51:47.978Z,100617.40
2018-07-28T05:56:50.116Z,100619.16
2018-07-28T06:01:52.353Z,100594.11
2018-07-28T06:06:54.503Z,100595.16
2018-07-28T06:11:56.626Z,100601.95
2018-07-28T06:16:59.101Z,100606.59
2018-07-28T06:22:01.292Z,100605.88
2018-07-28T06:27:03.406Z,100603.92
2018-07-28T06:32:06.509Z,100605.41
2018-07-28T06:37:08.669Z,100607.27
2018-07-28T06:42:10.806Z,100607.89
2018-07-28T06:47:12.939Z,100600.80
2018-07-28T06:52:15.084Z,100590.33
2018-07-28T06:57:17.255Z,100593.61
2018-07-28T07:02:19.371Z,100586.53
2018-07-28T07:07:21.722Z,100592.82
2018-07-28T07:12:23.877Z,100590.94
2018-07-28T07:17:26.023Z,100592.55
2018-07-28T07:22:28.155Z,100591.61
2018-07-28T07:27:30.295Z,100593.14
2018-07-28T07:32:32.446Z,100593.58
2018-07-28T07:37:34.608Z,100593.08
2018-07-28T07:42:36.871Z,100598.73
2018-07-28T07:47:39.153Z,100591.47
2018-07-28T07:52:41.306Z,100588.11
2018-07-28T07:57:43.520Z,100574.06
2018-07-28T08:02:45.724Z,100573.41
2018-07-28T08:07:48.111Z,100555.77
2018-07-28T08:12:51.209Z,100555.22
2018-07-28T08:17:53.413Z,100547.73
2018-07-28T08:22:55.628Z,100542.35
2018-07-28T08:27:57.779Z,100544.00
2018-07-28T08:32:59.972Z,100542.63
2018-07-28T08:38:02.087Z,100543.17
2018-07-28T08:43:04.576Z,100536.25
2018-07-28T08:48:06.792Z,100533.27
2018-07-28T08:53:08.974Z,100526.92
2018-07-28T08:58:11.151Z,100524.03
2018-07-28T09:03:13.345Z,100515.94
2018-07-28T09:08:15.546Z,100514.41
2018-07-28T09:13:17.672Z,100498.39
2018-07-28T09:18:19.847Z,100486.09
2018-07-28T09:23:22.061Z,100486.22
2018-07-28T09:28:24.294Z,100493.70
2018-07-28T09:33:26.534Z,100512.20
2018-07-28T09:38:28.785Z,100508.64
2018-07-28T09:43:30.952Z,100507.00
2018-07-28T09:48:33.109Z,100517.89
2018-07-28T09:53:35.630Z,100503.36
2018-07-28T09:58:37.878Z,100502.45
2018-07-28T10:03:40.057Z,100497.34
2018-07-28T10:08:42.256Z,100479.73
2018-07-28T10:13:44.413Z,100462.36
2018-07-28T10:18:46.608Z,100465.62
2018-07-28T10:23:48.811Z,100444.67
2018-07-28T10:28:51.026Z,100442.62
2018-07-28T10:33:53.211Z,100429.63
2018-07-28T10:38:55.369Z,100411.53
2018-07-28T10:43:57.510Z,100413.37
2018-07-28T10:48:59.812Z,100411.70
2018-07-28T10:54:01.974Z,100409.82
2018-07-28T10:59:04.250Z,100399.98
2018-07-28T11:04:06.464Z,100402.81
2018-07-28T11:09:09.543Z,100384.44
2018-07-28T11:14:11.757Z,100394.20
2018-07-28T11:19:13.951Z,100383.02
2018-07-28T11:24:16.113Z,100384.96
2018-07-28T11:29:18.248Z,100382.87
2018-07-28T11:34:31.953Z,100383.63
2018-07-28T11:39:45.702Z,100380.27
2018-07-28T11:45:01.312Z,100382.27
2018-07-28T11:50:03.541Z,100360.34
2018-07-28T11:55:05.863Z,100360.39
2018-07-28T12:00:09.063Z,100351.00
2018-07-28T12:05:11.224Z,100355.41
2018-07-28T12:10:13.417Z,100350.67
2018-07-28T12:15:15.595Z,100348.81
2018-07-28T12:20:17.742Z,100338.01
2018-07-28T12:25:19.914Z,100332.91
2018-07-28T12:30:22.119Z,100324.27
2018-07-28T12:35:24.264Z,100320.17
2018-07-28T12:40:26.424Z,100305.43
2018-07-28T12:45:28.604Z,100289.84
2018-07-28T12:50:30.841Z,100283.24
2018-07-28T12:55:32.981Z,100275.58
2018-07-28T13:00:35.221Z,100270.23
2018-07-28T13:05:37.419Z,100257.23
2018-07-28T13:10:39.606Z,100251.95
2018-07-28T13:15:41.825Z,100246.90
2018-07-28T13:20:43.995Z,100252.33
2018-07-28T13:25:46.167Z,100234.55
2018-07-28T13:30:48.329Z,100229.11
2018-07-28T13:35:50.506Z,100225.16
2018-07-28T13:40:52.681Z,100230.83
2018-07-28T13:45:54.882Z,100225.36
2018-07-28T13:50:57.136Z,100231.39
2018-07-28T13:55:59.764Z,100217.09
2018-07-28T14:01:01.994Z,100220.22
2018-07-28T14:06:05.156Z,100224.50
2018-07-28T14:11:07.693Z,100242.02
2018-07-28T14:16:09.882Z,100224.66
2018-07-28T14:21:12.108Z,100229.25
2018-07-28T14:26:14.350Z,100225.11
2018-07-28T14:31:16.500Z,100235.58
2018-07-28T14:36:18.741Z,100238.75
2018-07-28T14:41:21.078Z,100253.64
2018-07-28T14:46:23.261Z,100376.46
2018-07-28T14:51:25.446Z,100407.52
2018-07-28T14:56:27.585Z,100443.39
2018-07-28T15:01:29.779Z,100449.63
2018-07-28T15:06:32.129Z,100468.58
2018-07-28T15:11:34.313Z,100501.53
2018-07-28T15:16:36.527Z,100504.98
2018-07-28T15:21:38.724Z,100498.82
2018-07-28T15:26:40.871Z,100494.60
2018-07-28T15:36:44.760Z,100509.14
2018-07-28T15:41:46.934Z,100489.45
2018-07-28T15:46:49.099Z,100486.44
2018-07-28T15:51:51.266Z,100494.79
2018-07-28T15:56:53.436Z,100502.07
2018-07-28T16:01:55.913Z,100501.11
2018-07-28T16:06:58.099Z,100488.41
2018-07-28T16:12:00.264Z,100492.88
2018-07-28T16:17:02.445Z,100497.19
2018-07-28T16:22:04.792Z,100517.18
2018-07-28T16:27:07.036Z,100541.64
2018-07-28T16:32:09.212Z,100545.02
2018-07-28T16:37:11.428Z,100550.78
2018-07-28T16:42:13.692Z,100567.28
2018-07-28T16:47:15.888Z,100577.47
2018-07-28T16:52:18.169Z,100590.59
2018-07-28T16:57:20.901Z,100598.20
2018-07-28T17:02:23.131Z,100608.52
2018-07-28T17:07:25.395Z,100606.02
2018-07-28T17:12:27.631Z,100606.33
2018-07-28T17:17:31.759Z,100616.38
2018-07-28T17:22:33.981Z,100615.02
2018-07-28T17:27:36.156Z,100616.02
2018-07-28T17:32:38.357Z,100610.56
2018-07-28T17:37:40.573Z,100619.03
2018-07-28T17:42:42.777Z,100632.09
2018-07-28T17:47:44.962Z,100634.13
2018-07-28T17:52:47.167Z,100652.72
2018-07-28T17:57:49.333Z,100654.23
2018-07-28T18:02:51.697Z,100662.86
2018-07-28T18:07:53.886Z,100655.22
2018-07-28T18:12:56.099Z,100652.09
2018-07-28T18:17:58.318Z,100647.94
2018-07-28T18:23:00.540Z,100648.36
2018-07-28T18:28:02.772Z,100636.66
2018-07-28T18:33:05.117Z,100643.95
2018-07-28T18:38:07.291Z,100646.91
2018-07-28T18:43:09.521Z,100662.20
2018-07-28T18:48:11.700Z,100682.70
2018-07-28T18:53:13.904Z,100684.48
2018-07-28T18:58:16.161Z,100723.20
2018-07-28T19:03:18.397Z,100734.28
2018-07-28T19:08:20.872Z,100742.02
2018-07-28T19:13:28.826Z,100741.61
2018-07-28T19:18:36.774Z,100725.61
2018-07-28T19:23:44.713Z,100727.83
2018-07-28T19:28:52.699Z,100740.23
2018-07-28T19:33:55.063Z,100750.08
2018-07-28T19:38:57.261Z,100751.94
2018-07-28T19:43:59.501Z,100752.55
2018-07-28T19:49:01.695Z,100757.70
2018-07-28T19:54:04.052Z,100769.41
2018-07-28T19:59:06.259Z,100774.97
2018-07-28T20:04:08.563Z,100766.06
2018-07-28T20:09:10.864Z,100768.20
2018-07-28T20:14:13.032Z,100767.53
2018-07-28T20:19:15.307Z,100777.29
2018-07-28T20:24:18.291Z,100788.41
2018-07-28T20:29:20.518Z,100790.52
2018-07-28T20:34:23.716Z,100788.06
2018-07-28T20:39:26.256Z,100804.98
2018-07-28T20:44:28.469Z,100812.16
2018-07-28T20:49:30.624Z,100833.03
2018-07-28T20:54:32.820Z,100852.90
2018-07-28T20:59:35.068Z,100861.29
2018-07-28T21:04:37.292Z,100864.80
2018-07-28T21:09:39.437Z,100881.63
2018-07-28T21:14:41.639Z,100885.48
2018-07-28T21:19:43.921Z,100894.77
2018-07-28T21:24:46.179Z,100888.17
2018-07-28T21:29:48.339Z,100913.50
2018-07-28T21:34:50.504Z,100892.95
2018-07-28T21:39:52.699Z,100893.70
2018-07-28T21:44:54.934Z,100898.39
2018-07-28T21:49:57.104Z,100899.45
2018-07-28T21:54:59.288Z,100908.73
2018-07-28T22:00:01.466Z,100907.61
2018-07-28T22:05:05.165Z,100914.92
2018-07-28T22:10:07.360Z,100912.38
2018-07-28T22:15:09.570Z,100916.92
2018-07-28T22:20:11.755Z,100934.82
2018-07-28T22:25:13.976Z,100923.41
2018-07-28T22:30:16.180Z,100944.48
2018-07-28T22:35:18.351Z,100942.88
2018-07-28T22:40:20.564Z,100961.22
2018-07-28T22:45:22.739Z,100961.92
2018-07-28T22:50:24.955Z,100972.87
2018-07-28T22:55:27.473Z,100961.02
2018-07-28T23:00:29.670Z,100971.96
2018-07-28T23:05:31.897Z,100985.98
2018-07-28T23:10:34.040Z,100997.36
2018-07-28T23:15:36.249Z,101005.94
2018-07-28T23:20:38.428Z,101007.09
2018-07-28T23:25:40.554Z,101007.75
2018-07-28T23:30:42.690Z,101005.09
2018-07-28T23:35:44.846Z,101012.87
2018-07-28T23:40:47.552Z,101019.00
2018-07-28T23:45:49.801Z,101016.89
2018-07-28T23:50:51.934Z,101023.16
2018-07-28T23:55:54.127Z,101014.27
